Gubakha, Russia
Current Conditions -  °F | °C
As of 10:00 PM on Saturday 25 Oct 2014 (Local Time) from USPP Reporting Station
Scattered Clouds Scattered Clouds  
Wind Chill: -2°   Ceiling: Unl
Heat Index: 10°   Visibility: 6mi
Dew Point:   Wind: 9mph
Humidity: 85%   Direction: 320°NW
Pressure: 30.24"   Gusts: NA
Location:  58.87°N, 57.59°E
Report Text: USPP 251700Z 32004MPS 9999 SCT016 M12/M14 Q1024 03810255 NOSIGRMK QFE757/1010
Loading
Personal Weather Stations






























Interactive Weather Map
Tropical Storm Tracking
New forecast layout! Learn more

10-Day Weather Forecast

Advertisements
Track Severe Weather on mobile